Arabi, LA (70032)

10:29 PM CST on March 01, 2015 (GMT -0600)
Gentilly Terrace | Change Station
CLOSE
Current Station
Personal Weather Station
Location: New Orleans, LA
Elevation: 15 ft
Nearby Weather Stations
Active Advisory: Dense Fog Advisory

Elev 15 ft 30.00 °N, 90.05 °W | Updated 16 seconds ago

Fog
Fog
57.0 °F
Feels Like 57.0 °F
N
2.0
Wind Variable Wind from SE
Gusts 10.0 mph

Today
High -- | Low -- °F
--% Chance of Precip.
Yesterday
High -- | Low -- °F
Precip. -- in
6:26 AM 5:58 PM
Waxing Gibbous, 89% visible
Pressure 30.30 in
Visibility 0.8 miles
Clouds
Dew Point 57 °F
Humidity 99%
Rainfall 0.00 in
Snow Depth Not available.
UV Not available.
Pollen 9.40 out of 12
Air Quality Not available.
Flu Activity Not available.
METAR KNEW 020353Z AUTO 09009KT 3/4SM BR VV002 14/13 A3031 RMK AO2 SLP258 T01440133 TSNO

More Conditions Fewer Conditions

Pressure 30.30 in
Visibility 0.8 miles
Clouds
Dew Point 57 °F
Humidity 99%
Rainfall 0.00 in
Snow Depth Not available.
UV Not available.
Pollen 9.40 out of 12
Air Quality Not available.
Flu Activity Not available.
METAR KNEW 020353Z AUTO 09009KT 3/4SM BR VV002 14/13 A3031 RMK AO2 SLP258 T01440133 TSNO

More Conditions Fewer Conditions

10-Day Weather Forecast

Almanac

Astronomy

Mar. 01, 2015 Rise Set
Actual Time
Civil Twilight
Nautical Twilight
Astronomical Twilight
Moon
Length of Visible Light
Length of Day
Tomorrow will be .
, % of the Moon is Illuminated

Today's Extremes

State Highs State Lows

Community

WunderPhotos

Upload Photos

1,801,724 photos uploaded!

WunderBlogs® & News

Nearby

Air Quality

  Air Quality AQ Index Pollutant
Not available.

Snow Depth

Station Depth Elevation

Earthquake Activity

City Distance Mag. Time & Date
Minimum magnitude displayed is 2.5.

Coastal Water Temperatures

Place Temperature

Nearby Weather Stations

Dense Fog Advisory
Statement as of 9:39 PM CST on March 01, 2015

... Dense fog advisory remains in effect until 9 am CST Monday...

* visibility... one quarter mile or less.

* Duration... areas of fog tonight through mid morning.

* Impacts... reduced visibilities on area roadways including both
interstates 10 and 12 and bridges over waterways.

Precautionary/preparedness actions...

A dense fog advisory means visibilities will frequently be
reduced to less than one quarter mile. If driving... slow down...
use your headlights... and leave plenty of distance ahead of you.